createdAt,value
2023-03-31T00:00:57.910Z,11.94
2023-03-31T00:03:25.356Z,11.95
2023-03-31T00:05:58.523Z,11.91
2023-03-31T00:08:29.945Z,11.84
2023-03-31T00:11:00.726Z,11.83
2023-03-31T00:13:28.101Z,11.67
2023-03-31T00:16:04.706Z,11.68
2023-03-31T00:18:32.405Z,11.69
2023-03-31T00:21:24.397Z,11.57
2023-03-31T00:23:56.023Z,11.68
2023-03-31T00:26:23.242Z,11.73
2023-03-31T00:28:50.955Z,11.60
2023-03-31T00:31:18.450Z,11.60
2023-03-31T00:33:45.504Z,11.53
2023-03-31T00:36:12.510Z,11.56
2023-03-31T00:38:39.482Z,11.49
2023-03-31T00:41:06.642Z,11.58
2023-03-31T00:43:38.510Z,11.60
2023-03-31T00:46:31.084Z,11.47
2023-03-31T00:48:58.677Z,11.32
2023-03-31T00:51:29.998Z,11.52
2023-03-31T00:54:04.984Z,11.35
2023-03-31T00:56:40.471Z,11.45
2023-03-31T00:59:11.817Z,11.36
2023-03-31T01:01:43.036Z,11.43
2023-03-31T01:04:13.293Z,11.23
2023-03-31T01:07:02.356Z,11.30
2023-03-31T01:09:34.908Z,11.27
2023-03-31T01:12:09.081Z,11.21
2023-03-31T01:14:36.437Z,11.25
2023-03-31T01:17:05.139Z,11.14
2023-03-31T01:20:33.282Z,11.31
2023-03-31T01:23:35.582Z,11.27
2023-03-31T01:26:38.890Z,11.33
2023-03-31T01:29:50.872Z,11.31
2023-03-31T01:32:55.437Z,11.31
2023-03-31T01:36:02.634Z,11.25
2023-03-31T01:39:04.966Z,11.25
2023-03-31T01:41:50.826Z,11.13
2023-03-31T01:44:49.048Z,11.08
2023-03-31T01:47:34.603Z,11.13
2023-03-31T01:50:11.598Z,11.13
2023-03-31T01:52:47.552Z,11.10
2023-03-31T01:55:39.676Z,11.02
2023-03-31T01:58:19.086Z,11.08
2023-03-31T02:01:03.604Z,11.04
2023-03-31T02:03:38.256Z,11.10
2023-03-31T02:06:22.345Z,11.01
2023-03-31T02:08:56.380Z,11.07
2023-03-31T02:11:26.421Z,11.07
2023-03-31T02:13:57.817Z,10.95
2023-03-31T02:16:28.350Z,10.99
2023-03-31T02:19:02.411Z,10.93
2023-03-31T02:21:38.735Z,10.96
2023-03-31T02:24:11.661Z,11.04
2023-03-31T02:26:52.280Z,11.02
2023-03-31T02:29:20.667Z,11.02
2023-03-31T02:32:23.192Z,10.92
2023-03-31T02:34:50.215Z,10.89
2023-03-31T02:37:17.433Z,10.84
2023-03-31T02:39:48.899Z,10.97
2023-03-31T02:42:16.100Z,10.97
2023-03-31T02:44:43.658Z,10.96
2023-03-31T02:47:14.082Z,11.00
2023-03-31T02:49:51.571Z,10.83
2023-03-31T02:52:58.735Z,10.94
2023-03-31T02:55:43.648Z,10.84
2023-03-31T02:58:39.927Z,10.66
2023-03-31T03:01:35.879Z,10.61
2023-03-31T03:04:25.643Z,10.78
2023-03-31T03:07:06.336Z,10.73
2023-03-31T03:09:53.802Z,10.67
2023-03-31T03:12:48.351Z,10.67
2023-03-31T03:15:29.973Z,10.78
2023-03-31T03:17:57.373Z,10.72
2023-03-31T03:20:24.408Z,10.74
2023-03-31T03:22:51.473Z,10.77
2023-03-31T03:25:20.389Z,10.75
2023-03-31T03:27:47.944Z,10.85
2023-03-31T03:30:15.314Z,10.89
2023-03-31T03:32:43.033Z,10.73
2023-03-31T03:35:10.970Z,10.72
2023-03-31T03:37:38.539Z,10.77
2023-03-31T03:40:07.099Z,10.67
2023-03-31T03:42:35.265Z,10.87
2023-03-31T03:45:02.867Z,10.77
2023-03-31T03:47:29.862Z,10.95
2023-03-31T03:49:56.988Z,10.91
2023-03-31T03:52:23.923Z,10.99
2023-03-31T03:54:50.941Z,10.99
2023-03-31T03:57:17.975Z,10.94
2023-03-31T03:59:44.892Z,10.98
2023-03-31T04:02:11.857Z,11.05
2023-03-31T04:04:38.990Z,10.92
2023-03-31T04:07:05.967Z,11.01
2023-03-31T04:09:32.877Z,10.98
2023-03-31T04:11:59.822Z,11.01
2023-03-31T04:14:27.248Z,10.90
2023-03-31T04:16:56.461Z,10.87
2023-03-31T04:19:27.443Z,10.85
2023-03-31T04:22:02.919Z,10.79
2023-03-31T04:24:33.535Z,10.81
2023-03-31T04:27:02.714Z,10.89
2023-03-31T04:29:33.642Z,10.82
2023-03-31T04:32:01.401Z,10.81
2023-03-31T04:34:37.602Z,10.73
2023-03-31T04:37:04.770Z,10.76
2023-03-31T04:39:31.942Z,10.91
2023-03-31T04:42:00.694Z,10.77
2023-03-31T04:44:28.259Z,10.90
2023-03-31T04:46:56.073Z,10.77
2023-03-31T04:49:23.278Z,10.88
2023-03-31T04:51:51.043Z,10.92
2023-03-31T04:54:17.987Z,10.78
2023-03-31T04:56:45.138Z,10.72
2023-03-31T04:59:12.140Z,10.84
2023-03-31T05:01:39.274Z,10.77
2023-03-31T05:04:06.526Z,10.83
2023-03-31T05:06:33.850Z,10.70
2023-03-31T05:09:00.934Z,10.87
2023-03-31T05:11:28.963Z,10.74
2023-03-31T05:13:56.754Z,10.61
2023-03-31T05:16:23.659Z,10.64
2023-03-31T05:18:50.724Z,10.65
2023-03-31T05:21:20.746Z,10.70
2023-03-31T05:23:48.268Z,10.75
2023-03-31T05:26:15.963Z,10.76
2023-03-31T05:28:43.180Z,10.79
2023-03-31T05:31:11.276Z,10.78
2023-03-31T05:33:42.456Z,10.73
2023-03-31T05:36:12.651Z,10.58
2023-03-31T05:38:40.457Z,10.80
2023-03-31T05:41:09.452Z,10.80
2023-03-31T05:43:37.934Z,10.80
2023-03-31T05:46:06.685Z,10.82
2023-03-31T05:48:34.114Z,10.73
2023-03-31T05:51:02.179Z,10.71
2023-03-31T05:53:29.951Z,10.88
2023-03-31T05:56:02.970Z,10.86
2023-03-31T05:58:30.644Z,10.77
2023-03-31T06:01:10.020Z,10.88
2023-03-31T06:03:42.548Z,10.92
2023-03-31T06:06:37.590Z,10.85
2023-03-31T06:09:06.211Z,10.94
2023-03-31T06:11:33.199Z,10.76
2023-03-31T06:14:00.187Z,10.90
2023-03-31T06:16:28.909Z,10.87
2023-03-31T06:18:56.107Z,10.83
2023-03-31T06:21:23.483Z,10.72
2023-03-31T06:23:50.582Z,10.87
2023-03-31T06:26:19.352Z,10.95
2023-03-31T06:28:46.990Z,10.92
2023-03-31T06:31:20.675Z,10.95
2023-03-31T06:33:48.643Z,10.91
2023-03-31T06:36:19.481Z,10.89
2023-03-31T06:38:46.979Z,10.95
2023-03-31T06:41:15.929Z,10.92
2023-03-31T06:43:43.074Z,10.81
2023-03-31T06:46:10.945Z,10.73
2023-03-31T06:48:38.141Z,10.75
2023-03-31T06:51:07.112Z,10.95
2023-03-31T06:53:35.416Z,10.76
2023-03-31T06:56:02.565Z,10.87
2023-03-31T06:58:31.359Z,10.87
2023-03-31T07:00:59.104Z,10.92
2023-03-31T07:03:27.062Z,10.79
2023-03-31T07:05:55.711Z,10.86
2023-03-31T07:08:23.576Z,10.87
2023-03-31T07:10:58.603Z,10.90
2023-03-31T07:13:26.646Z,10.88
2023-03-31T07:15:54.247Z,10.98
2023-03-31T07:18:21.890Z,11.00
2023-03-31T07:20:53.134Z,10.97
2023-03-31T07:23:20.886Z,10.94
2023-03-31T07:25:48.080Z,10.99
2023-03-31T07:28:15.831Z,10.82
2023-03-31T07:30:43.138Z,10.92
2023-03-31T07:33:10.103Z,10.85
2023-03-31T07:35:41.653Z,11.02
2023-03-31T07:38:12.901Z,10.87
2023-03-31T07:40:41.658Z,10.90
2023-03-31T07:43:08.797Z,11.01
2023-03-31T07:45:36.070Z,11.07
2023-03-31T07:48:03.564Z,11.02
2023-03-31T07:50:34.494Z,11.03
2023-03-31T07:53:03.405Z,11.07
2023-03-31T07:55:30.516Z,11.12
2023-03-31T07:57:57.601Z,11.12
2023-03-31T08:00:24.678Z,11.18
2023-03-31T08:02:51.907Z,11.29
2023-03-31T08:05:20.871Z,11.16
2023-03-31T08:07:49.583Z,11.34
2023-03-31T08:10:23.594Z,11.36
2023-03-31T08:12:50.756Z,11.35
2023-03-31T08:15:18.421Z,11.52
2023-03-31T08:17:45.635Z,11.53
2023-03-31T08:20:12.928Z,11.63
2023-03-31T08:22:41.006Z,11.73
2023-03-31T08:25:10.124Z,11.71
2023-03-31T08:27:39.677Z,11.88
2023-03-31T08:30:13.251Z,11.91
2023-03-31T08:32:40.279Z,11.85
2023-03-31T08:35:08.508Z,11.82
2023-03-31T08:37:36.396Z,11.93
2023-03-31T08:40:09.689Z,11.81
2023-03-31T08:42:45.375Z,11.80
2023-03-31T08:45:39.845Z,11.93
2023-03-31T08:48:27.374Z,11.95
2023-03-31T08:51:11.083Z,12.11
2023-03-31T08:53:46.035Z,12.09
2023-03-31T08:56:18.049Z,12.23
2023-03-31T08:58:48.320Z,12.06
2023-03-31T09:01:54.613Z,12.21
2023-03-31T09:04:56.586Z,12.21
2023-03-31T09:07:53.305Z,12.19
2023-03-31T09:10:38.268Z,12.08
2023-03-31T09:13:29.469Z,12.11
2023-03-31T09:16:19.937Z,11.98
2023-03-31T09:18:47.093Z,11.98
2023-03-31T09:21:27.940Z,12.08
2023-03-31T09:24:13.664Z,11.91
2023-03-31T09:26:53.239Z,11.85
2023-03-31T09:30:05.461Z,11.82
2023-03-31T09:32:33.875Z,11.73
2023-03-31T09:35:16.962Z,11.61
2023-03-31T09:37:44.404Z,11.53
2023-03-31T09:40:19.274Z,11.53
2023-03-31T09:43:06.500Z,11.46
2023-03-31T09:45:34.817Z,11.43
2023-03-31T09:48:12.373Z,11.32
2023-03-31T09:51:06.213Z,11.41
2023-03-31T09:53:59.227Z,11.37
2023-03-31T09:56:42.614Z,11.47
2023-03-31T09:59:32.457Z,11.66
2023-03-31T10:02:04.146Z,11.77
2023-03-31T10:04:34.817Z,11.75
2023-03-31T10:07:04.911Z,11.82
2023-03-31T10:09:34.341Z,11.92
2023-03-31T10:12:15.672Z,12.11
2023-03-31T10:14:47.922Z,12.01
2023-03-31T10:17:18.880Z,11.89
2023-03-31T10:20:07.313Z,11.97
2023-03-31T10:22:35.650Z,11.89
2023-03-31T10:25:17.906Z,11.88
2023-03-31T10:27:49.052Z,11.99
2023-03-31T10:30:23.907Z,11.83
2023-03-31T10:32:54.043Z,11.83
2023-03-31T10:35:34.009Z,11.91
2023-03-31T10:38:12.243Z,11.88
2023-03-31T10:40:50.564Z,11.79
2023-03-31T10:43:21.232Z,11.73
2023-03-31T10:45:51.563Z,11.47
2023-03-31T10:48:29.728Z,11.58
2023-03-31T10:51:15.060Z,11.57
2023-03-31T10:53:44.802Z,11.48
2023-03-31T10:56:50.776Z,11.38
2023-03-31T10:59:33.544Z,11.30
2023-03-31T11:02:46.571Z,11.24
2023-03-31T11:05:56.750Z,11.28
2023-03-31T11:08:46.924Z,11.27
2023-03-31T11:11:53.291Z,11.25
2023-03-31T11:14:54.972Z,11.31
2023-03-31T11:17:39.480Z,11.33
2023-03-31T11:20:21.127Z,11.37
2023-03-31T11:23:44.519Z,11.41
2023-03-31T11:26:43.222Z,11.34
2023-03-31T11:29:44.137Z,11.40
2023-03-31T11:32:51.765Z,11.43
2023-03-31T11:36:04.318Z,11.58
2023-03-31T11:39:14.914Z,11.70
2023-03-31T11:41:53.585Z,11.73
2023-03-31T11:44:22.787Z,11.83
2023-03-31T11:47:00.063Z,11.66
2023-03-31T11:50:03.678Z,11.76
2023-03-31T11:52:35.343Z,11.72
2023-03-31T11:55:15.410Z,11.78
2023-03-31T11:57:59.284Z,11.81
2023-03-31T12:00:55.832Z,11.80
2023-03-31T12:03:55.868Z,11.76
2023-03-31T12:06:29.419Z,11.66
2023-03-31T12:09:49.258Z,11.76
2023-03-31T12:12:23.138Z,11.74
2023-03-31T12:15:06.507Z,11.88
2023-03-31T12:17:36.352Z,11.85
2023-03-31T12:20:14.450Z,11.84
2023-03-31T12:22:47.392Z,12.11
2023-03-31T12:25:16.646Z,12.13
2023-03-31T12:27:49.595Z,12.21
2023-03-31T12:30:34.984Z,12.21
2023-03-31T12:33:14.502Z,12.19
2023-03-31T12:36:39.270Z,12.25
2023-03-31T12:39:46.211Z,12.34
2023-03-31T12:42:44.581Z,12.32
2023-03-31T12:45:21.503Z,12.32
2023-03-31T12:48:25.004Z,12.31
2023-03-31T12:51:17.847Z,12.30
2023-03-31T12:54:26.994Z,12.42
2023-03-31T12:57:07.470Z,12.52
2023-03-31T12:59:39.653Z,12.66
2023-03-31T13:02:15.719Z,12.57
2023-03-31T13:04:44.235Z,12.53
2023-03-31T13:07:40.528Z,12.61
2023-03-31T13:10:19.976Z,12.71
2023-03-31T13:13:07.243Z,12.71
2023-03-31T13:15:34.243Z,12.75
2023-03-31T13:18:04.515Z,12.87
2023-03-31T13:20:40.828Z,12.90
2023-03-31T13:23:26.102Z,13.06
2023-03-31T13:25:55.353Z,13.43
2023-03-31T13:28:22.164Z,13.81
2023-03-31T13:31:08.830Z,13.84
2023-03-31T13:33:59.890Z,13.83
2023-03-31T13:36:32.553Z,14.05
2023-03-31T13:39:12.369Z,14.21
2023-03-31T13:42:03.768Z,14.32
2023-03-31T13:44:51.453Z,14.53
2023-03-31T13:47:40.359Z,14.67
2023-03-31T13:50:39.834Z,14.92
2023-03-31T13:53:34.105Z,14.86
2023-03-31T13:56:48.294Z,14.70
2023-03-31T13:59:58.649Z,14.40
2023-03-31T14:02:47.120Z,14.29
2023-03-31T14:05:22.746Z,14.03
2023-03-31T14:07:57.085Z,13.80
2023-03-31T14:10:35.266Z,13.67
2023-03-31T14:13:13.323Z,13.52
2023-03-31T14:15:51.992Z,13.35
2023-03-31T14:18:29.636Z,13.12
2023-03-31T14:21:14.723Z,13.16
2023-03-31T14:23:55.089Z,13.00
2023-03-31T14:26:59.108Z,12.97
2023-03-31T14:30:02.967Z,13.04
2023-03-31T14:32:45.915Z,13.02
2023-03-31T14:35:28.936Z,13.01
2023-03-31T14:37:56.880Z,12.85
2023-03-31T14:40:25.028Z,12.74
2023-03-31T14:42:52.441Z,12.82
2023-03-31T14:45:31.398Z,12.73
2023-03-31T14:48:13.761Z,12.60
2023-03-31T14:50:46.636Z,12.73
2023-03-31T14:53:23.322Z,12.77
2023-03-31T14:55:58.824Z,12.91
2023-03-31T14:58:35.015Z,12.94
2023-03-31T15:01:08.063Z,12.90
2023-03-31T15:03:41.557Z,12.82
2023-03-31T15:06:09.644Z,12.69
2023-03-31T15:08:38.053Z,12.90
2023-03-31T15:11:16.549Z,13.00
2023-03-31T15:14:01.236Z,12.92
2023-03-31T15:16:35.650Z,13.02
2023-03-31T15:19:14.010Z,13.02
2023-03-31T15:21:41.331Z,13.24
2023-03-31T15:24:12.206Z,13.25
2023-03-31T15:26:50.001Z,13.33
2023-03-31T15:29:35.842Z,13.30
2023-03-31T15:32:06.938Z,13.43
2023-03-31T15:34:37.027Z,13.50
2023-03-31T15:37:07.817Z,13.52
2023-03-31T15:39:37.498Z,13.46
2023-03-31T15:42:07.149Z,13.56
2023-03-31T15:45:15.852Z,13.45
2023-03-31T15:47:55.400Z,13.62
2023-03-31T15:50:24.316Z,13.55
2023-03-31T15:52:56.847Z,13.38
2023-03-31T15:55:23.769Z,13.54
2023-03-31T15:57:51.863Z,13.39
2023-03-31T16:00:34.119Z,13.50
2023-03-31T16:03:05.741Z,13.41
2023-03-31T16:05:53.215Z,13.41
2023-03-31T16:08:54.224Z,13.43
2023-03-31T16:11:42.746Z,13.38
2023-03-31T16:14:19.988Z,13.46
2023-03-31T16:17:08.061Z,13.40
2023-03-31T16:19:50.961Z,13.40
2023-03-31T16:22:24.133Z,13.50
2023-03-31T16:24:51.432Z,13.45
2023-03-31T16:27:18.650Z,13.73
2023-03-31T16:29:45.705Z,13.87
2023-03-31T16:32:18.725Z,13.88
2023-03-31T16:34:57.563Z,13.84
2023-03-31T16:37:25.781Z,13.89
2023-03-31T16:39:53.193Z,13.83
2023-03-31T16:42:21.233Z,13.90
2023-03-31T16:44:59.846Z,13.79
2023-03-31T16:47:35.660Z,13.63
2023-03-31T16:50:07.311Z,13.42
2023-03-31T16:52:36.027Z,13.36
2023-03-31T16:55:03.093Z,13.35
2023-03-31T16:57:30.095Z,13.39
2023-03-31T16:59:58.882Z,13.44
2023-03-31T17:02:26.186Z,13.37
2023-03-31T17:04:56.564Z,13.46
2023-03-31T17:07:26.982Z,13.45
2023-03-31T17:09:53.896Z,13.50
2023-03-31T17:12:20.873Z,13.38
2023-03-31T17:14:48.300Z,13.33
2023-03-31T17:17:17.795Z,13.33
2023-03-31T17:19:45.127Z,13.22
2023-03-31T17:22:12.039Z,13.15
2023-03-31T17:24:38.962Z,13.07
2023-03-31T17:27:05.942Z,13.28
2023-03-31T17:29:32.870Z,13.29
2023-03-31T17:32:00.016Z,13.35
2023-03-31T17:34:27.714Z,13.44
2023-03-31T17:36:55.701Z,13.54
2023-03-31T17:39:22.650Z,13.41
2023-03-31T17:41:49.574Z,13.38
2023-03-31T17:44:16.504Z,13.44
2023-03-31T17:46:46.158Z,13.39
2023-03-31T17:49:13.179Z,13.34
2023-03-31T17:51:40.556Z,13.37
2023-03-31T17:54:27.891Z,12.63
2023-03-31T17:56:58.246Z,13.12
2023-03-31T17:59:25.600Z,13.37
2023-03-31T18:01:52.845Z,13.43
2023-03-31T18:04:19.791Z,13.06
2023-03-31T18:06:48.515Z,13.12
2023-03-31T18:09:16.881Z,13.16
2023-03-31T18:11:44.057Z,13.03
2023-03-31T18:14:10.938Z,13.25
2023-03-31T18:16:38.058Z,13.27
2023-03-31T18:19:05.057Z,13.21
2023-03-31T18:21:32.083Z,13.06
2023-03-31T18:23:58.985Z,13.13
2023-03-31T18:26:27.052Z,13.01
2023-03-31T18:28:54.214Z,12.93
2023-03-31T18:31:22.269Z,12.76
2023-03-31T18:33:52.395Z,12.71
2023-03-31T18:36:21.055Z,12.42
2023-03-31T18:38:49.838Z,12.45
2023-03-31T18:41:20.348Z,12.34
2023-03-31T18:43:53.257Z,12.26
2023-03-31T18:46:21.015Z,12.13
2023-03-31T18:48:48.006Z,12.29
2023-03-31T18:51:15.419Z,12.08
2023-03-31T18:53:42.696Z,12.01
2023-03-31T18:56:09.610Z,11.82
2023-03-31T18:58:37.546Z,11.50
2023-03-31T19:01:04.575Z,11.63
2023-03-31T19:03:32.049Z,11.58
2023-03-31T19:06:11.289Z,11.61
2023-03-31T19:08:39.099Z,11.55
2023-03-31T19:11:17.020Z,11.68
2023-03-31T19:13:44.579Z,11.71
2023-03-31T19:16:13.371Z,11.53
2023-03-31T19:18:40.953Z,11.65
2023-03-31T19:21:07.939Z,11.77
2023-03-31T19:23:34.904Z,11.91
2023-03-31T19:26:03.074Z,11.86
2023-03-31T19:28:31.699Z,11.81
2023-03-31T19:30:59.148Z,11.74
2023-03-31T19:33:27.645Z,11.81
2023-03-31T19:35:54.817Z,11.78
2023-03-31T19:38:22.033Z,11.66
2023-03-31T19:40:49.614Z,11.61
2023-03-31T19:43:24.599Z,11.64
2023-03-31T19:45:53.562Z,11.63
2023-03-31T19:48:21.359Z,11.55
2023-03-31T19:50:57.011Z,11.67
2023-03-31T19:53:24.436Z,11.64
2023-03-31T19:56:10.429Z,11.71
2023-03-31T19:58:39.566Z,11.71
2023-03-31T20:01:22.659Z,11.52
2023-03-31T20:03:53.729Z,11.58
2023-03-31T20:06:27.215Z,11.57
2023-03-31T20:09:00.338Z,11.51
2023-03-31T20:11:29.662Z,11.60
2023-03-31T20:13:57.331Z,11.56
2023-03-31T20:16:28.073Z,11.51
2023-03-31T20:19:06.241Z,11.81
2023-03-31T20:21:36.811Z,11.94
2023-03-31T20:24:04.455Z,12.07
2023-03-31T20:26:34.020Z,12.32
2023-03-31T20:29:03.871Z,12.37
2023-03-31T20:31:36.354Z,12.33
2023-03-31T20:34:12.568Z,12.51
2023-03-31T20:36:41.896Z,12.60
2023-03-31T20:39:09.868Z,12.68
2023-03-31T20:41:37.489Z,12.67
2023-03-31T20:44:07.401Z,12.57
2023-03-31T20:46:34.761Z,12.39
2023-03-31T20:49:01.956Z,12.08
2023-03-31T20:51:32.378Z,12.26
2023-03-31T20:54:01.293Z,12.12
2023-03-31T20:56:32.321Z,12.01
2023-03-31T20:59:00.142Z,12.03
2023-03-31T21:07:24.364Z,11.74
2023-03-31T21:09:51.368Z,11.61
2023-03-31T21:12:19.441Z,11.69
2023-03-31T21:14:46.535Z,11.65
2023-03-31T21:17:13.438Z,11.43
2023-03-31T21:19:40.373Z,11.45
2023-03-31T21:22:07.346Z,11.34
2023-03-31T21:24:35.093Z,11.45
2023-03-31T21:27:02.063Z,11.43
2023-03-31T21:29:29.394Z,11.37
2023-03-31T21:31:56.687Z,11.29
2023-03-31T21:34:23.612Z,11.27
2023-03-31T21:36:50.494Z,11.28
2023-03-31T21:39:19.735Z,11.31
2023-03-31T21:41:46.660Z,11.16
2023-03-31T21:44:13.613Z,11.21
2023-03-31T21:46:41.434Z,11.33
2023-03-31T21:49:08.413Z,11.16
2023-03-31T21:51:35.641Z,11.22
2023-03-31T21:54:02.565Z,11.01
2023-03-31T21:56:32.112Z,11.13
2023-03-31T21:59:00.235Z,11.15
2023-03-31T22:01:27.712Z,11.28
2023-03-31T22:03:54.799Z,11.67
2023-03-31T22:06:22.385Z,11.92
2023-03-31T22:08:49.380Z,12.04
2023-03-31T22:11:16.717Z,12.15
2023-03-31T22:13:43.785Z,12.20
2023-03-31T22:16:21.111Z,12.42
2023-03-31T22:18:50.232Z,12.42
2023-03-31T22:21:28.843Z,12.57
2023-03-31T22:23:59.437Z,12.40
2023-03-31T22:26:29.181Z,12.46
2023-03-31T22:28:56.832Z,12.43
2023-03-31T22:31:26.093Z,12.34
2023-03-31T22:33:53.219Z,12.24
2023-03-31T22:36:20.714Z,12.36
2023-03-31T22:38:47.702Z,11.93
2023-03-31T22:41:16.682Z,11.98
2023-03-31T22:43:45.886Z,11.94
2023-03-31T22:46:13.985Z,11.95
2023-03-31T22:48:40.921Z,11.62
2023-03-31T22:51:08.898Z,11.75
2023-03-31T22:53:36.011Z,11.95
2023-03-31T22:56:10.066Z,11.92
2023-03-31T22:58:37.568Z,11.95
2023-03-31T23:01:06.990Z,11.80
2023-03-31T23:03:34.838Z,11.83
2023-03-31T23:06:06.223Z,11.78
2023-03-31T23:08:35.839Z,11.79
2023-03-31T23:11:05.986Z,11.77
2023-03-31T23:13:32.870Z,11.81
2023-03-31T23:16:12.454Z,12.03
2023-03-31T23:18:44.470Z,11.94
2023-03-31T23:21:12.248Z,12.12
2023-03-31T23:23:40.329Z,11.93
2023-03-31T23:26:07.366Z,11.92
2023-03-31T23:28:37.118Z,11.87
2023-03-31T23:31:05.602Z,11.79
2023-03-31T23:33:32.771Z,11.60
2023-03-31T23:36:05.768Z,11.59
2023-03-31T23:38:33.698Z,11.62
2023-03-31T23:41:01.718Z,11.63
2023-03-31T23:43:28.810Z,11.66
2023-03-31T23:45:56.436Z,11.60
2023-03-31T23:48:23.662Z,11.47
2023-03-31T23:50:50.984Z,11.45
2023-03-31T23:53:17.986Z,11.37
2023-03-31T23:55:57.870Z,11.64
2023-03-31T23:58:26.535Z,11.62
